Time;durP1;ratioP1;P1;durP2;ratioP2;P2;SDS_P1;SDS_P2;PMS_P1;PMS_P2;Temp;Humidity;BMP_temperature;BMP_pressure;BME280_temperature;BME280_humidity;BME280_pressure;Samples;Min_cycle;Max_cycle;Signal;HPM_P1;HPM_P2
2021/07/17 00:00:15;;;;;;;;;;;;;;;;;;5036788;28;19928;-90
2021/07/17 00:02:44;;;;;;;;;;;;;;;;;;5033285;28;19932;-90
2021/07/17 00:05:13;;;;;;;;;;;;;;;;;;5027986;28;19925;-89
2021/07/17 00:07:42;;;;;;;;;;;;;;;;;;5057958;28;19933;-89
2021/07/17 00:10:11;;;;;;;;;;;;;;;;;;5038840;28;19929;-89
2021/07/17 00:12:39;;;;;;;;;;;;;;;;;;5051789;28;19912;-90
2021/07/17 00:15:08;;;;;;;;;;;;;;;;;;5055783;28;19921;-88
2021/07/17 00:17:36;;;;;;;;;;;;;;;;;;5057598;28;19940;-89
2021/07/17 00:20:06;;;;;;;;;;;;;;;;;;5056333;28;19931;-90
2021/07/17 00:22:34;;;;;;;;;;;;;;;;;;5058934;28;19918;-89
2021/07/17 00:25:04;;;;;;;;;;;;;;;;;;5056521;28;19920;-90
2021/07/17 00:27:32;;;;;;;;;;;;;;;;;;5092373;28;19927;-89
2021/07/17 00:30:03;;;;;;;;;;;;;;;;;;5057613;28;19919;-90
2021/07/17 00:32:32;;;;;;;;;;;;;;;;;;5037075;28;20491;-89
2021/07/17 00:35:00;;;;;;;;;;;;;;;;;;5032892;28;19959;-89
2021/07/17 00:37:28;;;;;;;;;;;;;;;;;;5053037;28;20307;-88
2021/07/17 00:39:56;;;;;;;;;;;;;;;;;;5025098;28;19924;-89
2021/07/17 00:42:26;;;;;;;;;;;;;;;;;;5034036;28;19951;-89
2021/07/17 00:44:54;;;;;;;;;;;;;;;;;;5052545;28;19940;-90
2021/07/17 00:47:22;;;;;;;;;;;;;;;;;;5048363;28;19925;-88
2021/07/17 00:49:51;;;;;;;;;;;;;;;;;;5052827;28;19925;-88
2021/07/17 00:52:19;;;;;;;;;;;;;;;;;;5036104;28;19924;-88
2021/07/17 00:54:47;;;;;;;;;;;;;;;;;;5039959;28;20396;-88
2021/07/17 00:57:15;;;;;;;;;;;;;;;;;;5049518;28;20296;-88
2021/07/17 00:59:45;;;;;;;;;;;;;;;;;;5049007;28;19992;-89
2021/07/17 01:02:13;;;;;;;;;;;;;;;;;;5048893;28;19925;-88
2021/07/17 01:04:41;;;;;;;;;;;;;;;;;;5037134;28;19939;-88
2021/07/17 01:07:10;;;;;;;;;;;;;;;;;;5028722;28;19929;-90
2021/07/17 01:09:38;;;;;;;;;;;;;;;;;;5032871;28;19939;-88
2021/07/17 01:12:06;;;;;;;;;;;;;;;;;;5034672;28;20312;-89
2021/07/17 01:14:35;;;;;;;;;;;;;;;;;;5036942;28;19925;-91
2021/07/17 01:17:05;;;;;;;;;;;;;;;;;;5028136;28;20323;-88
2021/07/17 01:19:33;;;;;;;;;;;;;;;;;;5028676;28;19924;-90
2021/07/17 01:22:03;;;;;;;;;;;;;;;;;;5028782;28;19929;-89
2021/07/17 01:24:32;;;;;;;;;;;;;;;;;;5038392;28;19924;-89
2021/07/17 01:27:00;;;;;;;;;;;;;;;;;;5033760;28;19935;-90
2021/07/17 01:29:28;;;;;;;;;;;;;;;;;;5037036;28;19924;-89
2021/07/17 01:31:56;;;;;;;;;;;;;;;;;;5052001;28;19939;-90
2021/07/17 01:34:25;;;;;;;;;;;;;;;;;;5044244;28;20210;-90
2021/07/17 01:37:03;;;;;;;;;;;;;;;;;;5052803;28;19931;-88
2021/07/17 01:39:34;;;;;;;;;;;;;;;;;;5040344;28;19931;-90
2021/07/17 01:42:03;;;;;;;;;;;;;;;;;;5064255;28;19924;-90
2021/07/17 01:44:31;;;;;;;;;;;;;;;;;;5035030;28;19924;-89
2021/07/17 01:46:59;;;;;;;;;;;;;;;;;;5034241;28;20311;-88
2021/07/17 01:49:27;;;;;;;;;;;;;;;;;;5051908;28;19925;-90
2021/07/17 01:51:55;;;;;;;;;;;;;;;;;;5053219;28;19925;-89
2021/07/17 01:54:25;;;;;;;;;;;;;;;;;;5028044;28;19925;-90
2021/07/17 01:56:53;;;;;;;;;;;;;;;;;;5035159;28;19925;-90
2021/07/17 01:59:21;;;;;;;;;;;;;;;;;;5031438;28;20383;-89
2021/07/17 02:01:50;;;;;;;;;;;;;;;;;;5046280;28;19939;-90
2021/07/17 02:04:18;;;;;;;;;;;;;;;;;;5037265;28;19928;-89
2021/07/17 02:06:46;;;;;;;;;;;;;;;;;;5049587;28;19928;-89
2021/07/17 02:09:14;;;;;;;;;;;;;;;;;;5048584;28;19931;-89
2021/07/17 02:11:44;;;;;;;;;;;;;;;;;;5070964;28;19931;-89
2021/07/17 02:14:12;;;;;;;;;;;;;;;;;;5032380;28;19925;-90
2021/07/17 02:16:40;;;;;;;;;;;;;;;;;;5053818;28;19928;-89
2021/07/17 02:19:13;;;;;;;;;;;;;;;;;;5067233;28;19934;-89
2021/07/17 02:21:41;;;;;;;;;;;;;;;;;;5071667;28;19928;-89
2021/07/17 02:24:10;;;;;;;;;;;;;;;;;;5054069;28;19931;-89
2021/07/17 02:26:38;;;;;;;;;;;;;;;;;;5055186;28;19929;-89
2021/07/17 02:29:07;;;;;;;;;;;;;;;;;;5038304;28;19932;-87
2021/07/17 02:31:36;;;;;;;;;;;;;;;;;;5031765;28;19925;-90
2021/07/17 02:34:04;;;;;;;;;;;;;;;;;;5033412;28;19925;-90
2021/07/17 02:36:32;;;;;;;;;;;;;;;;;;5051896;28;19924;-89
2021/07/17 02:39:01;;;;;;;;;;;;;;;;;;5042615;28;19925;-89
2021/07/17 02:41:29;;;;;;;;;;;;;;;;;;5048764;28;19929;-90
2021/07/17 02:43:57;;;;;;;;;;;;;;;;;;5032413;28;19924;-89
2021/07/17 02:46:26;;;;;;;;;;;;;;;;;;5036821;28;20311;-90
2021/07/17 02:48:55;;;;;;;;;;;;;;;;;;5042351;28;19929;-90
2021/07/17 02:51:23;;;;;;;;;;;;;;;;;;5030625;28;19924;-90
2021/07/17 02:53:51;;;;;;;;;;;;;;;;;;5035917;28;20003;-90
2021/07/17 02:56:19;;;;;;;;;;;;;;;;;;5070173;28;19929;-88
2021/07/17 02:58:47;;;;;;;;;;;;;;;;;;5034206;28;19925;-90
2021/07/17 03:01:16;;;;;;;;;;;;;;;;;;5038692;28;20340;-88
2021/07/17 03:03:45;;;;;;;;;;;;;;;;;;5056795;28;19932;-92
2021/07/17 03:06:14;;;;;;;;;;;;;;;;;;5044585;28;20039;-92
2021/07/17 03:08:42;;;;;;;;;;;;;;;;;;5058393;28;19933;-92
2021/07/17 03:11:10;;;;;;;;;;;;;;;;;;5050848;28;19924;-93
2021/07/17 03:13:38;;;;;;;;;;;;;;;;;;5045948;28;19924;-92
2021/07/17 03:16:07;;;;;;;;;;;;;;;;;;5055137;28;19939;-92
2021/07/17 03:18:36;;;;;;;;;;;;;;;;;;5065210;28;19925;-91
2021/07/17 03:21:05;;;;;;;;;;;;;;;;;;5062946;28;19913;-92
2021/07/17 03:23:34;;;;;;;;;;;;;;;;;;5059410;28;19912;-93
2021/07/17 03:26:02;;;;;;;;;;;;;;;;;;5066409;28;19927;-92
2021/07/17 03:28:30;;;;;;;;;;;;;;;;;;5062115;28;19913;-92
2021/07/17 03:30:58;;;;;;;;;;;;;;;;;;5059598;28;19925;-94
2021/07/17 03:33:27;;;;;;;;;;;;;;;;;;5059146;28;19929;-93
2021/07/17 03:35:55;;;;;;;;;;;;;;;;;;5066381;28;19912;-92
2021/07/17 03:38:24;;;;;;;;;;;;;;;;;;5076722;28;19940;-93
2021/07/17 03:40:53;;;;;;;;;;;;;;;;;;5056006;28;19932;-93
2021/07/17 03:43:21;;;;;;;;;;;;;;;;;;5044518;28;20435;-93
2021/07/17 04:15:37;;;;;;;;;;;;;;;;;;4992351;28;19921;-95
2021/07/17 04:18:05;;;;;;;;;;;;;;;;;;4964738;28;20310;-94
2021/07/17 04:20:35;;;;;;;;;;;;;;;;;;5055860;28;19924;-94
2021/07/17 04:23:17;;;;;;;;;;;;;;;;;;5056582;28;20396;-94
2021/07/17 04:52:46;;;;;;;;;;;;;;;;;;4875740;29;19923;-93
2021/07/17 05:13:11;;;;;;;;;;;;;;;;;;4886156;29;19938;-94
2021/07/17 05:15:45;;;;;;;;;;;;;;;;;;4918625;29;19927;-94
2021/07/17 05:18:24;;;;;;;;;;;;;;;;;;4960231;28;19941;-94
2021/07/17 05:21:36;;;;;;;;;;;;;;;;;;;;;
2021/07/17 05:29:26;;;;;;;;;;;;;;;;;;4950232;28;19926;-94
2021/07/17 05:40:13;;;;;;;;;;;;;;;;;;4956653;28;19936;-94
2021/07/17 05:42:53;;;;;;;;;;;;;;;;;;4950282;28;19933;-94
2021/07/17 05:45:26;;;;;;;;;;;;;;;;;;5021655;28;19929;-94
2021/07/17 05:47:55;;;;;;;;;;;;;;;;;;5027920;28;19931;-95
2021/07/17 05:50:23;;;;;;;;;;;;;;;;;;5016498;28;19925;-94
2021/07/17 05:52:52;;;;;;;;;;;;;;;;;;5022767;28;19932;-94
2021/07/17 05:55:21;;;;;;;;;;;;;;;;;;5022907;28;19947;-93
2021/07/17 05:57:50;;;;;;;;;;;;;;;;;;5032379;28;19924;-95
2021/07/17 06:00:20;;;;;;;;;;;;;;;;;;5030265;28;19925;-94
2021/07/17 06:03:00;;;;;;;;;;;;;;;;;;5020519;28;19929;-93
2021/07/17 06:06:00;;;;;;;;;;;;;;;;;;5046053;28;19924;-92
2021/07/17 06:12:54;;;;;;;;;;;;;;;;;;5081488;23;20400;-85
2021/07/17 06:15:25;;;;;;;;;;;;;;;;;;5059263;28;20329;-87
2021/07/17 06:17:54;;;;;;;;;;;;;;;;;;5032328;28;19980;-82
2021/07/17 06:20:25;;;;;;;;;;;;;;;;;;5052914;28;19925;-82
2021/07/17 06:22:53;;;;;;;;;;;;;;;;;;5044661;28;19931;-84
2021/07/17 06:25:22;;;;;;;;;;;;;;;;;;5036307;28;19928;-82
2021/07/17 06:27:50;;;;;;;;;;;;;;;;;;5048250;28;19924;-82
2021/07/17 06:30:21;;;;;;;;;;;;;;;;;;5055243;28;19925;-82
2021/07/17 06:33:17;;;;;;;;;;;;;;;;;;5066900;28;19932;-85
2021/07/17 06:36:19;;;;;;;;;;;;;;;;;;5027020;28;19935;-82
2021/07/17 06:38:53;;;;;;;;;;;;;;;;;;5044836;28;19933;-82
2021/07/17 06:41:22;;;;;;;;;;;;;;;;;;5040554;28;19924;-85
2021/07/17 06:43:57;;;;;;;;;;;;;;;;;;5046509;28;19928;-84
2021/07/17 06:46:30;;;;;;;;;;;;;;;;;;5037469;28;19924;-82
2021/07/17 06:49:06;;;;;;;;;;;;;;;;;;5048767;28;19924;-84
2021/07/17 06:51:39;;;;;;;;;;;;;;;;;;5053000;28;19932;-82
2021/07/17 06:54:10;;;;;;;;;;;;;;;;;;5048877;28;20018;-84
2021/07/17 06:56:38;;;;;;;;;;;;;;;;;;5035191;28;19933;-86
2021/07/17 06:59:07;;;;;;;;;;;;;;;;;;5064652;28;19925;-85
2021/07/17 07:01:37;;;;;;;;;;;;;;;;;;5050314;28;19928;-87
2021/07/17 07:04:05;;;;;;;;;;;;;;;;;;5065254;28;19940;-81
2021/07/17 07:06:34;;;;;;;;;;;;;;;;;;5035679;28;19931;-82
2021/07/17 07:09:02;;;;;;;;;;;;;;;;;;5055964;28;20214;-83
2021/07/17 07:11:30;;;;;;;;;;;;;;;;;;5041044;28;19925;-85
2021/07/17 07:13:59;;;;;;;;;;;;;;;;;;5059299;28;19924;-83
2021/07/17 07:16:27;;;;;;;;;;;;;;;;;;5032720;28;19931;-83
2021/07/17 07:18:57;;;;;;;;;;;;;;;;;;5030771;28;20279;-83
2021/07/17 07:21:25;;;;;;;;;;;;;;;;;;5056279;28;19925;-83
2021/07/17 07:23:53;;;;;;;;;;;;;;;;;;5056057;28;19939;-82
2021/07/17 07:26:21;;;;;;;;;;;;;;;;;;5042454;28;19932;-83
2021/07/17 07:28:51;;;;;;;;;;;;;;;;;;5043964;28;20243;-83
2021/07/17 07:31:19;;;;;;;;;;;;;;;;;;5035944;28;19924;-83
2021/07/17 07:33:47;;;;;;;;;;;;;;;;;;5050951;28;19939;-83
2021/07/17 07:36:17;;;;;;;;;;;;;;;;;;5048791;28;19932;-83
2021/07/17 07:38:46;;;;;;;;;;;;;;;;;;5053618;28;19932;-83
2021/07/17 07:41:14;;;;;;;;;;;;;;;;;;5039761;28;19925;-84
2021/07/17 07:43:45;;;;;;;;;;;;;;;;;;5042516;28;19925;-82
2021/07/17 07:46:13;;;;;;;;;;;;;;;;;;5047802;28;19925;-84
2021/07/17 07:48:42;;;;;;;;;;;;;;;;;;5027622;28;20326;-82
2021/07/17 07:51:10;;;;;;;;;;;;;;;;;;5020783;28;19924;-82
2021/07/17 07:53:40;;;;;;;;;;;;;;;;;;5025189;28;19932;-84
2021/07/17 07:56:08;;;;;;;;;;;;;;;;;;5020797;28;20333;-83
2021/07/17 07:58:36;;;;;;;;;;;;;;;;;;5031236;28;19931;-83
2021/07/17 08:01:04;;;;;;;;;;;;;;;;;;5037294;28;19929;-82
2021/07/17 08:03:33;;;;;;;;;;;;;;;;;;5036787;28;19931;-83
2021/07/17 08:06:01;;;;;;;;;;;;;;;;;;5036123;28;20413;-81
2021/07/17 08:08:30;;;;;;;;;;;;;;;;;;5048740;28;19925;-86
2021/07/17 08:10:59;;;;;;;;;;;;;;;;;;5036280;28;19936;-84
2021/07/17 08:13:28;;;;;;;;;;;;;;;;;;5049513;28;19931;-86
2021/07/17 08:15:58;;;;;;;;;;;;;;;;;;5041555;28;19924;-84
2021/07/17 08:18:26;;;;;;;;;;;;;;;;;;5032387;28;19936;-84
2021/07/17 08:20:54;;;;;;;;;;;;;;;;;;5057941;28;20008;-86
2021/07/17 08:23:48;;;;;;;;;;;;;;;;;;5056418;28;19920;-87
2021/07/17 08:26:18;;;;;;;;;;;;;;;;;;5030096;28;19940;-84
2021/07/17 08:28:47;;;;;;;;;;;;;;;;;;5045699;28;19924;-84
2021/07/17 08:31:15;;;;;;;;;;;;;;;;;;5026954;28;19925;-84
2021/07/17 08:33:44;;;;;;;;;;;;;;;;;;5023242;28;19925;-85
2021/07/17 08:36:12;;;;;;;;;;;;;;;;;;5037156;28;19925;-82
2021/07/17 08:38:40;;;;;;;;;;;;;;;;;;5070057;28;19932;-82
2021/07/17 08:41:09;;;;;;;;;;;;;;;;;;5052433;28;19931;-82
2021/07/17 08:43:39;;;;;;;;;;;;;;;;;;5034144;28;19925;-85
2021/07/17 08:46:07;;;;;;;;;;;;;;;;;;5033309;28;19932;-84
2021/07/17 08:48:36;;;;;;;;;;;;;;;;;;5030343;28;19931;-86
2021/07/17 08:51:07;;;;;;;;;;;;;;;;;;5050049;28;19936;-82
2021/07/17 08:53:35;;;;;;;;;;;;;;;;;;5042477;28;19936;-86
2021/07/17 08:56:04;;;;;;;;;;;;;;;;;;5026330;28;20122;-85
2021/07/17 08:59:59;;;;;;;;;;;;;;;;;;;;;
2021/07/17 09:06:28;;;;;;;;;;;;;;;;;;5058773;28;19928;-85
2021/07/17 09:08:57;;;;;;;;;;;;;;;;;;5045007;28;19924;-84
2021/07/17 09:11:34;;;;;;;;;;;;;;;;;;5030501;28;19942;-83
2021/07/17 09:18:03;;;;;;;;;;;;;;;;;;5041083;28;19928;-83
2021/07/17 09:25:33;;;;;;;;;;;;;;;;;;5046540;28;19943;-83
2021/07/17 09:36:30;;;;;;;;;;;;;;;;;;4909041;29;19927;-84
2021/07/17 09:46:43;;;;;;;;;;;;;;;;;;5035066;28;20976;-84
2021/07/17 09:50:02;;;;;;;;;;;;;;;;;;5053961;28;20290;-84
2021/07/17 09:53:49;;;;;;;;;;;;;;;;;;5037059;28;19928;-84
2021/07/17 09:56:53;;;;;;;;;;;;;;;;;;5026142;28;19925;-85
2021/07/17 10:00:35;;;;;;;;;;;;;;;;;;5034821;28;19924;-86
2021/07/17 10:03:50;;;;;;;;;;;;;;;;;;5046588;28;19925;-84
2021/07/17 10:11:11;;;;;;;;;;;;;;;;;;5033737;28;19940;-84
2021/07/17 10:14:49;;;;;;;;;;;;;;;;;;5099746;23;19940;-85
2021/07/17 10:18:23;;;;;;;;;;;;;;;;;;5057114;28;19921;-85
2021/07/17 10:21:25;;;;;;;;;;;;;;;;;;5050845;28;19920;-84
2021/07/17 10:27:24;;;;;;;;;;;;;;;;;;;;;
2021/07/17 10:33:24;;;;;;;;;;;;;;;;;;5039164;28;19932;-83
2021/07/17 10:36:00;;;;;;;;;;;;;;;;;;5063173;28;19944;-85
2021/07/17 10:38:35;;;;;;;;;;;;;;;;;;5035470;28;19925;-84
2021/07/17 10:41:11;;;;;;;;;;;;;;;;;;5047693;28;19932;-84
2021/07/17 10:43:57;;;;;;;;;;;;;;;;;;5064996;28;21130;-85
2021/07/17 10:46:26;;;;;;;;;;;;;;;;;;5051245;28;19928;-83
2021/07/17 10:48:55;;;;;;;;;;;;;;;;;;5047953;28;19925;-83
2021/07/17 10:51:29;;;;;;;;;;;;;;;;;;5077117;28;19925;-83
2021/07/17 10:54:01;;;;;;;;;;;;;;;;;;5063457;28;19939;-83
2021/07/17 10:56:34;;;;;;;;;;;;;;;;;;5050520;28;20095;-83
2021/07/17 10:59:07;;;;;;;;;;;;;;;;;;5064382;28;19924;-84
2021/07/17 11:01:55;;;;;;;;;;;;;;;;;;5042542;28;19931;-85
2021/07/17 11:04:32;;;;;;;;;;;;;;;;;;5035398;28;19931;-84
2021/07/17 11:07:23;;;;;;;;;;;;;;;;;;5056807;28;19947;-84
2021/07/17 11:09:56;;;;;;;;;;;;;;;;;;5040807;28;19936;-84
2021/07/17 11:12:34;;;;;;;;;;;;;;;;;;5037267;28;19925;-83
2021/07/17 11:15:21;;;;;;;;;;;;;;;;;;5030993;28;20437;-84
2021/07/17 11:18:26;;;;;;;;;;;;;;;;;;5072586;28;19929;-84
2021/07/17 11:20:59;;;;;;;;;;;;;;;;;;5069538;28;19920;-84
2021/07/17 11:23:32;;;;;;;;;;;;;;;;;;5059454;28;19932;-82
2021/07/17 11:26:04;;;;;;;;;;;;;;;;;;5049130;28;19925;-83
2021/07/17 11:28:50;;;;;;;;;;;;;;;;;;5052278;28;20085;-83
2021/07/17 11:31:39;;;;;;;;;;;;;;;;;;5027707;28;19924;-83
2021/07/17 11:34:32;;;;;;;;;;;;;;;;;;5041304;28;19925;-83
2021/07/17 11:37:02;;;;;;;;;;;;;;;;;;5074234;28;20382;-83
2021/07/17 11:39:33;;;;;;;;;;;;;;;;;;5046084;28;20414;-83
2021/07/17 11:42:04;;;;;;;;;;;;;;;;;;5051413;28;19925;-84
2021/07/17 11:44:33;;;;;;;;;;;;;;;;;;5046500;28;19933;-83
2021/07/17 11:47:06;;;;;;;;;;;;;;;;;;5058946;28;19920;-84
2021/07/17 11:49:35;;;;;;;;;;;;;;;;;;5066872;28;19920;-85
2021/07/17 11:52:04;;;;;;;;;;;;;;;;;;5067581;28;19941;-85
2021/07/17 11:54:33;;;;;;;;;;;;;;;;;;5049332;28;19930;-84
2021/07/17 11:57:04;;;;;;;;;;;;;;;;;;5046308;28;19992;-83
2021/07/17 11:59:33;;;;;;;;;;;;;;;;;;5047768;28;20298;-83
2021/07/17 12:02:04;;;;;;;;;;;;;;;;;;5030061;28;19924;-84
2021/07/17 12:04:34;;;;;;;;;;;;;;;;;;5025358;28;19932;-83
2021/07/17 12:07:03;;;;;;;;;;;;;;;;;;5019361;28;19936;-82
2021/07/17 12:09:32;;;;;;;;;;;;;;;;;;5045585;28;19924;-82
2021/07/17 12:12:15;;;;;;;;;;;;;;;;;;5063382;28;19932;-83
2021/07/17 12:14:44;;;;;;;;;;;;;;;;;;5058386;28;19925;-82
2021/07/17 12:17:12;;;;;;;;;;;;;;;;;;5027485;28;20395;-81
2021/07/17 12:19:40;;;;;;;;;;;;;;;;;;5048193;28;19937;-82
2021/07/17 12:22:09;;;;;;;;;;;;;;;;;;5029124;28;20421;-82
2021/07/17 12:24:37;;;;;;;;;;;;;;;;;;5027381;28;19931;-83
2021/07/17 12:27:06;;;;;;;;;;;;;;;;;;5028267;28;19932;-82
2021/07/17 12:29:35;;;;;;;;;;;;;;;;;;5029874;28;19924;-84
2021/07/17 12:32:04;;;;;;;;;;;;;;;;;;5028161;28;19932;-81
2021/07/17 12:34:33;;;;;;;;;;;;;;;;;;5047988;28;19928;-85
2021/07/17 12:37:01;;;;;;;;;;;;;;;;;;5031676;28;19944;-84
2021/07/17 12:39:29;;;;;;;;;;;;;;;;;;5047675;28;19931;-85
2021/07/17 12:42:00;;;;;;;;;;;;;;;;;;5035256;28;19925;-83
2021/07/17 12:51:41;;;;;;;;;;;;;;;;;;5015925;28;19925;-80
2021/07/17 12:54:57;;;;;;;;;;;;;;;;;;5020888;28;19929;-80
2021/07/17 12:57:59;;;;;;;;;;;;;;;;;;4985775;28;20411;-83
2021/07/17 13:00:50;;;;;;;;;;;;;;;;;;5005149;28;19930;-83
2021/07/17 13:03:25;;;;;;;;;;;;;;;;;;4988761;28;19926;-83
2021/07/17 13:05:54;;;;;;;;;;;;;;;;;;4988575;28;19940;-83
2021/07/17 13:08:25;;;;;;;;;;;;;;;;;;5001707;28;20608;-83
2021/07/17 13:10:54;;;;;;;;;;;;;;;;;;5005794;28;19980;-83
2021/07/17 13:13:26;;;;;;;;;;;;;;;;;;4996625;28;20073;-84
2021/07/17 13:15:55;;;;;;;;;;;;;;;;;;4997388;28;20384;-84
2021/07/17 13:18:25;;;;;;;;;;;;;;;;;;5022984;28;19932;-83
2021/07/17 13:21:02;;;;;;;;;;;;;;;;;;5027003;28;19932;-84
2021/07/17 13:23:46;;;;;;;;;;;;;;;;;;4998092;28;19936;-83
2021/07/17 13:26:20;;;;;;;;;;;;;;;;;;4983477;28;20225;-84
2021/07/17 13:28:49;;;;;;;;;;;;;;;;;;5009178;28;19925;-85
2021/07/17 13:31:18;;;;;;;;;;;;;;;;;;5019690;28;19932;-83
2021/07/17 13:33:46;;;;;;;;;;;;;;;;;;4992131;28;19932;-84
2021/07/17 13:36:14;;;;;;;;;;;;;;;;;;4997074;28;19929;-83
2021/07/17 13:38:43;;;;;;;;;;;;;;;;;;5001856;28;20651;-83
2021/07/17 13:41:11;;;;;;;;;;;;;;;;;;4984070;28;20442;-83
2021/07/17 13:43:42;;;;;;;;;;;;;;;;;;4993793;28;20654;-83
2021/07/17 13:46:10;;;;;;;;;;;;;;;;;;4986878;28;19929;-83
2021/07/17 13:48:39;;;;;;;;;;;;;;;;;;5009643;28;19933;-83
2021/07/17 13:51:14;;;;;;;;;;;;;;;;;;5011211;28;19924;-84
2021/07/17 13:53:43;;;;;;;;;;;;;;;;;;5011633;28;20441;-83
2021/07/17 13:56:14;;;;;;;;;;;;;;;;;;4991095;28;20194;-84
2021/07/17 13:58:47;;;;;;;;;;;;;;;;;;5004793;28;19933;-84
2021/07/17 14:01:17;;;;;;;;;;;;;;;;;;4996262;28;19929;-83
2021/07/17 14:03:46;;;;;;;;;;;;;;;;;;4986880;28;19940;-84
2021/07/17 14:06:16;;;;;;;;;;;;;;;;;;5039389;28;19914;-84
2021/07/17 14:08:46;;;;;;;;;;;;;;;;;;5011068;28;19932;-84
2021/07/17 14:11:15;;;;;;;;;;;;;;;;;;5005564;28;19925;-83
2021/07/17 14:13:45;;;;;;;;;;;;;;;;;;4993805;28;19925;-83
2021/07/17 14:16:14;;;;;;;;;;;;;;;;;;5032013;28;19932;-85
2021/07/17 14:18:43;;;;;;;;;;;;;;;;;;5015280;28;19909;-83
2021/07/17 14:21:13;;;;;;;;;;;;;;;;;;5017577;28;19933;-83
2021/07/17 14:23:42;;;;;;;;;;;;;;;;;;5013224;28;19925;-83
2021/07/17 14:26:11;;;;;;;;;;;;;;;;;;5010728;28;19964;-83
2021/07/17 14:28:39;;;;;;;;;;;;;;;;;;5026247;28;19925;-84
2021/07/17 14:31:09;;;;;;;;;;;;;;;;;;5010455;28;19926;-83
2021/07/17 14:33:37;;;;;;;;;;;;;;;;;;5006927;28;19925;-83
2021/07/17 14:36:05;;;;;;;;;;;;;;;;;;4988569;28;19932;-84
2021/07/17 14:38:35;;;;;;;;;;;;;;;;;;5008321;28;19969;-83
2021/07/17 14:41:05;;;;;;;;;;;;;;;;;;4993239;28;19941;-83
2021/07/17 14:43:33;;;;;;;;;;;;;;;;;;4995635;28;20283;-83
2021/07/17 14:46:02;;;;;;;;;;;;;;;;;;5016794;28;19929;-83
2021/07/17 14:48:32;;;;;;;;;;;;;;;;;;5014655;28;19933;-84
2021/07/17 14:51:00;;;;;;;;;;;;;;;;;;4996668;28;19932;-84
2021/07/17 14:53:29;;;;;;;;;;;;;;;;;;5001476;28;19925;-83
2021/07/17 14:55:57;;;;;;;;;;;;;;;;;;5003687;28;19933;-80
2021/07/17 14:58:25;;;;;;;;;;;;;;;;;;5011449;28;19925;-80
2021/07/17 15:00:54;;;;;;;;;;;;;;;;;;5023792;28;19944;-81
2021/07/17 15:03:22;;;;;;;;;;;;;;;;;;5003032;28;19931;-81
2021/07/17 15:05:52;;;;;;;;;;;;;;;;;;4982794;28;20388;-85
2021/07/17 15:08:20;;;;;;;;;;;;;;;;;;5011746;28;19925;-84
2021/07/17 15:10:51;;;;;;;;;;;;;;;;;;5002536;28;19925;-80
2021/07/17 15:13:20;;;;;;;;;;;;;;;;;;5023697;28;20433;-80
2021/07/17 15:15:48;;;;;;;;;;;;;;;;;;5014416;28;19925;-80
2021/07/17 15:18:17;;;;;;;;;;;;;;;;;;5001069;28;20308;-83
2021/07/17 15:20:45;;;;;;;;;;;;;;;;;;4997825;28;19925;-80
2021/07/17 15:23:15;;;;;;;;;;;;;;;;;;4997550;28;19940;-80
2021/07/17 15:25:43;;;;;;;;;;;;;;;;;;4994449;28;19928;-80
2021/07/17 15:28:12;;;;;;;;;;;;;;;;;;4995290;28;19933;-82
2021/07/17 15:30:42;;;;;;;;;;;;;;;;;;4998771;28;19933;-81
2021/07/17 15:33:11;;;;;;;;;;;;;;;;;;5014418;28;19933;-80
2021/07/17 15:35:43;;;;;;;;;;;;;;;;;;5007862;28;20391;-83
2021/07/17 15:38:12;;;;;;;;;;;;;;;;;;4997776;28;19925;-83
2021/07/17 15:40:41;;;;;;;;;;;;;;;;;;5008473;28;19925;-80
2021/07/17 15:43:10;;;;;;;;;;;;;;;;;;5006816;28;19960;-83
2021/07/17 15:45:41;;;;;;;;;;;;;;;;;;5013337;28;20384;-83
2021/07/17 15:48:10;;;;;;;;;;;;;;;;;;4996958;28;19926;-85
2021/07/17 15:50:38;;;;;;;;;;;;;;;;;;4999580;28;19925;-84
2021/07/17 15:53:07;;;;;;;;;;;;;;;;;;4997655;28;19925;-84
2021/07/17 15:55:35;;;;;;;;;;;;;;;;;;4997467;28;19929;-83
2021/07/17 15:58:05;;;;;;;;;;;;;;;;;;5000609;28;19930;-84
2021/07/17 16:00:34;;;;;;;;;;;;;;;;;;5010457;28;19930;-84
2021/07/17 16:03:03;;;;;;;;;;;;;;;;;;5019632;28;19933;-83
2021/07/17 16:05:32;;;;;;;;;;;;;;;;;;5018088;28;19932;-80
2021/07/17 16:08:00;;;;;;;;;;;;;;;;;;4998498;28;19940;-85
2021/07/17 16:10:28;;;;;;;;;;;;;;;;;;5030690;28;19932;-84
2021/07/17 16:12:57;;;;;;;;;;;;;;;;;;4988833;28;19925;-82
2021/07/17 16:15:26;;;;;;;;;;;;;;;;;;5017940;28;19925;-83
2021/07/17 16:17:55;;;;;;;;;;;;;;;;;;5007518;28;19925;-84
2021/07/17 16:20:23;;;;;;;;;;;;;;;;;;5028777;28;19933;-84
2021/07/17 16:22:52;;;;;;;;;;;;;;;;;;5017334;28;19937;-83
2021/07/17 16:25:20;;;;;;;;;;;;;;;;;;5004725;28;19926;-83
2021/07/17 16:27:48;;;;;;;;;;;;;;;;;;4996433;28;20355;-83
2021/07/17 16:30:17;;;;;;;;;;;;;;;;;;5004963;28;19925;-83
2021/07/17 16:32:48;;;;;;;;;;;;;;;;;;5023643;28;20407;-82
2021/07/17 16:35:16;;;;;;;;;;;;;;;;;;5022947;28;19925;-82
2021/07/17 16:37:47;;;;;;;;;;;;;;;;;;5014453;28;19913;-87
2021/07/17 16:40:16;;;;;;;;;;;;;;;;;;5013751;28;19923;-87
2021/07/17 16:42:44;;;;;;;;;;;;;;;;;;5040366;28;19910;-86
2021/07/17 16:45:13;;;;;;;;;;;;;;;;;;5008027;28;20367;-84
2021/07/17 16:47:41;;;;;;;;;;;;;;;;;;4997489;28;19932;-85
2021/07/17 16:50:11;;;;;;;;;;;;;;;;;;5007734;28;19927;-85
2021/07/17 16:52:40;;;;;;;;;;;;;;;;;;5020260;28;19933;-85
2021/07/17 16:55:09;;;;;;;;;;;;;;;;;;4995682;28;19932;-85
2021/07/17 16:57:37;;;;;;;;;;;;;;;;;;5008688;28;19940;-84
2021/07/17 17:00:06;;;;;;;;;;;;;;;;;;4998021;28;19929;-83
2021/07/17 17:02:34;;;;;;;;;;;;;;;;;;4990363;28;19936;-83
2021/07/17 17:05:03;;;;;;;;;;;;;;;;;;4980129;28;19926;-82
2021/07/17 17:07:33;;;;;;;;;;;;;;;;;;4989400;28;19936;-86
2021/07/17 17:10:02;;;;;;;;;;;;;;;;;;4994193;28;19925;-83
2021/07/17 17:12:30;;;;;;;;;;;;;;;;;;5012765;28;19940;-86
2021/07/17 17:15:02;;;;;;;;;;;;;;;;;;5014888;28;19913;-85
2021/07/17 17:17:31;;;;;;;;;;;;;;;;;;5042741;28;19929;-86
2021/07/17 17:20:06;;;;;;;;;;;;;;;;;;5012242;28;19913;-85
2021/07/17 17:22:41;;;;;;;;;;;;;;;;;;5027335;28;19932;-85
2021/07/17 17:25:11;;;;;;;;;;;;;;;;;;5030836;28;19917;-86
2021/07/17 17:27:39;;;;;;;;;;;;;;;;;;5016731;28;19920;-86
2021/07/17 17:30:12;;;;;;;;;;;;;;;;;;5011138;28;19925;-86
2021/07/17 17:33:17;;;;;;;;;;;;;;;;;;5019125;28;19925;-85
2021/07/17 17:44:09;;;;;;;;;;;;;;;;;;4985351;28;20295;-84
2021/07/17 17:47:13;;;;;;;;;;;;;;;;;;5026224;28;19933;-83
2021/07/17 17:49:57;;;;;;;;;;;;;;;;;;5023103;28;20302;-83
2021/07/17 17:52:39;;;;;;;;;;;;;;;;;;4997968;28;20012;-83
2021/07/17 17:55:32;;;;;;;;;;;;;;;;;;5008047;28;19925;-83
2021/07/17 17:58:14;;;;;;;;;;;;;;;;;;5012058;28;19925;-84
2021/07/17 18:00:43;;;;;;;;;;;;;;;;;;5014120;28;19944;-82
2021/07/17 18:03:13;;;;;;;;;;;;;;;;;;5014640;28;20334;-83
2021/07/17 18:06:19;;;;;;;;;;;;;;;;;;5078558;22;19924;-84
2021/07/17 18:09:14;;;;;;;;;;;;;;;;;;5035389;28;19935;-85
2021/07/17 18:12:39;;;;;;;;;;;;;;;;;;5055309;28;20397;-81
2021/07/17 18:15:15;;;;;;;;;;;;;;;;;;5061394;28;19947;-82
2021/07/17 18:17:44;;;;;;;;;;;;;;;;;;5025441;28;19925;-83
2021/07/17 18:20:14;;;;;;;;;;;;;;;;;;5046166;28;19925;-85
2021/07/17 18:22:42;;;;;;;;;;;;;;;;;;5035975;28;20299;-82
2021/07/17 18:25:11;;;;;;;;;;;;;;;;;;5038230;28;19925;-84
2021/07/17 18:27:40;;;;;;;;;;;;;;;;;;5054256;28;19962;-83
2021/07/17 18:30:09;;;;;;;;;;;;;;;;;;5038776;28;20420;-84
2021/07/17 18:32:39;;;;;;;;;;;;;;;;;;5043334;28;19925;-83
2021/07/17 18:35:08;;;;;;;;;;;;;;;;;;5040170;23;20305;-82
2021/07/17 18:37:36;;;;;;;;;;;;;;;;;;5016571;28;19925;-84
2021/07/17 18:40:06;;;;;;;;;;;;;;;;;;5012713;28;19944;-81
2021/07/17 18:42:34;;;;;;;;;;;;;;;;;;5020073;28;19925;-83
2021/07/17 18:45:03;;;;;;;;;;;;;;;;;;5025975;23;20287;-82
2021/07/17 18:47:31;;;;;;;;;;;;;;;;;;5050651;28;19936;-84
2021/07/17 18:50:01;;;;;;;;;;;;;;;;;;5036930;28;19925;-83
2021/07/17 18:52:30;;;;;;;;;;;;;;;;;;5041063;28;19936;-85
2021/07/17 18:54:58;;;;;;;;;;;;;;;;;;5041238;28;19924;-83
2021/07/17 18:57:27;;;;;;;;;;;;;;;;;;5074262;28;19925;-83
2021/07/17 18:59:55;;;;;;;;;;;;;;;;;;5027966;28;19932;-83
2021/07/17 19:02:24;;;;;;;;;;;;;;;;;;5049150;28;20322;-83
2021/07/17 19:04:53;;;;;;;;;;;;;;;;;;5043571;28;19940;-84
2021/07/17 19:07:23;;;;;;;;;;;;;;;;;;5042279;28;19924;-84
2021/07/17 19:09:51;;;;;;;;;;;;;;;;;;5031052;28;19936;-83
2021/07/17 19:12:22;;;;;;;;;;;;;;;;;;5048316;28;19932;-84
2021/07/17 19:14:50;;;;;;;;;;;;;;;;;;5064598;28;19923;-85
2021/07/17 19:17:22;;;;;;;;;;;;;;;;;;5071500;28;19935;-87
2021/07/17 19:19:51;;;;;;;;;;;;;;;;;;5057588;28;20336;-87
2021/07/17 19:22:20;;;;;;;;;;;;;;;;;;5055119;28;19925;-85
2021/07/17 19:24:51;;;;;;;;;;;;;;;;;;5056060;28;19908;-84
2021/07/17 19:27:19;;;;;;;;;;;;;;;;;;5054363;28;19925;-85
2021/07/17 19:30:30;;;;;;;;;;;;;;;;;;5052243;28;19924;-83
2021/07/17 19:33:08;;;;;;;;;;;;;;;;;;4958876;28;19933;-84
2021/07/17 19:35:48;;;;;;;;;;;;;;;;;;4964726;28;19930;-84
2021/07/17 19:38:19;;;;;;;;;;;;;;;;;;5030379;28;20542;-83
2021/07/17 19:41:12;;;;;;;;;;;;;;;;;;5042339;28;19924;-82
2021/07/17 19:43:58;;;;;;;;;;;;;;;;;;5060456;23;19929;-90
2021/07/17 19:46:27;;;;;;;;;;;;;;;;;;5010762;28;19929;-90
2021/07/17 19:48:55;;;;;;;;;;;;;;;;;;4982168;28;19936;-91
2021/07/17 19:51:23;;;;;;;;;;;;;;;;;;4979650;28;19941;-91
2021/07/17 19:53:52;;;;;;;;;;;;;;;;;;4963122;28;19933;-91